Atmospheric History
12/06/2017 18:46  to  12/7/2017 18:46
Change End Date:
To complete the export process:
1) Select all of the data below
2) Copy the data to the clipboard
3) Open a word processor such as Notepad
4) Paste the data into the word processor
5) Save the file

Date/Time (MST), AirTemp, RH, Dewpoint ,AvgWindSpeed, GustWindSpeed, WindDirection, PrecipType, PrecipIntensity, PrecipAccumulation, PrecipRate ,Visibility
12/07/2017 18:36, 34, 47, 16 ,1, 2, S, None, None, 0, 0 ,6560
12/07/2017 18:34, 34, 47, 16 ,1, 2, S, None, None, 0, 0 ,6560
12/07/2017 18:26, 33, 47, 16 ,1, 6, W, None, None, 0, 0 ,6560
12/07/2017 18:19, 34, 48, 16 ,3, 7, SW, None, None, 0, 0 ,6560
12/07/2017 18:16, 34, 48, 17 ,3, 7, SW, None, None, 0, 0 ,6560
12/07/2017 18:06, 31, 53, 17 ,0, 4, E, None, None, 0, 0 ,6560
12/07/2017 18:04, 31, 53, 17 ,1, 4, E, None, None, 0, 0 ,6560
12/07/2017 17:56, 31, 53, 16 ,3, 7, W, None, None, 0, 0 ,6560
12/07/2017 17:49, 31, 53, 16 ,6, 7, W, None, None, 0, 0 ,6560
12/07/2017 17:46, 31, 52, 16 ,6, 7, W, None, None, 0, 0 ,6560
12/07/2017 17:36, 32, 51, 17 ,4, 5, W, None, None, 0, 0 ,6560
12/07/2017 17:34, 32, 51, 17 ,3, 4, W, None, None, 0, 0 ,6560
12/07/2017 17:26, 33, 51, 17 ,2, 4, W, None, None, 0, 0 ,6560
12/07/2017 17:19, 34, 51, 18 ,2, 6, W, None, None, 0, 0 ,6560
12/07/2017 17:16, 34, 52, 18 ,4, 6, W, None, None, 0, 0 ,6560
12/07/2017 17:06, 33, 52, 17 ,6, 10, W, None, None, 0, 0 ,6560
12/07/2017 17:04, 33, 51, 17 ,7, 10, NW, None, None, 0, 0 ,6560
12/07/2017 16:55, 34, 51, 18 ,7, 11, NW, None, None, 0, 0 ,6560
12/07/2017 16:49, 33, 51, 18 ,6, 10, W, None, None, 0, 0 ,6560
12/07/2017 16:45, 34, 51, 18 ,7, 11, NW, None, None, 0, 0 ,6560
12/07/2017 16:35, 33, 53, 18 ,6, 11, NW, None, None, 0, 0 ,6560
12/07/2017 16:34, 33, 53, 18 ,5, 11, NW, None, None, 0, 0 ,6560
12/07/2017 16:25, 34, 52, 19 ,7, 13, NW, None, None, 0, 0 ,6560
12/07/2017 16:19, 34, 53, 19 ,8, 12, NW, None, None, 0, 0 ,6560
12/07/2017 16:15, 33, 54, 18 ,9, 12, NW, None, None, 0, 0 ,6560
12/07/2017 16:05, 34, 52, 19 ,9, 13, NW, None, None, 0, 0 ,6560
12/07/2017 16:05, 35, 51, 19 ,9, 17, NW, None, None, 0, 0 ,6560
12/07/2017 15:55, 37, 49, 19 ,14, 20, N, None, None, 0, 0 ,6560
12/07/2017 15:49, 37, 48, 20 ,16, 20, N, None, None, 0, 0 ,6560
12/07/2017 15:45, 37, 48, 20 ,14, 18, N, None, None, 0, 0 ,6560
12/07/2017 15:35, 37, 51, 20 ,13, 19, N, None, None, 0, 0 ,6560
12/07/2017 15:35, 36, 51, 20 ,13, 19, N, None, None, 0, 0 ,6560
12/07/2017 15:25, 37, 50, 20 ,11, 14, NW, None, None, 0, 0 ,6560
12/07/2017 15:19, 37, 49, 20 ,9, 14, NW, None, None, 0, 0 ,6560
12/07/2017 15:15, 38, 48, 20 ,10, 14, N, None, None, 0, 0 ,6560
12/07/2017 15:05, 38, 48, 20 ,10, 14, NW, None, None, 0, 0 ,6560
12/07/2017 15:05, 38, 48, 20 ,9, 16, NW, None, None, 0, 0 ,6560
12/07/2017 14:55, 38, 48, 20 ,12, 17, N, None, None, 0, 0 ,6560
12/07/2017 14:49, 39, 46, 20 ,14, 19, NW, None, None, 0, 0 ,6560
12/07/2017 14:45, 39, 46, 20 ,15, 19, N, None, None, 0, 0 ,6560
12/07/2017 14:35, 39, 45, 20 ,16, 21, N, None, None, 0, 0 ,6560
12/07/2017 14:34, 39, 45, 20 ,16, 21, N, None, None, 0, 0 ,6560
12/07/2017 14:25, 40, 44, 20 ,17, 24, NW, None, None, 0, 0 ,6560
12/07/2017 14:19, 40, 44, 20 ,17, 25, NW, None, None, 0, 0 ,6560
12/07/2017 14:14, 40, 44, 20 ,19, 25, NW, None, None, 0, 0 ,6560
12/07/2017 14:04, 40, 46, 21 ,18, 22, NW, None, None, 0, 0 ,6560
12/07/2017 13:54, 39, 48, 21 ,16, 19, NW, None, None, 0, 0 ,6560
12/07/2017 13:49, 39, 48, 21 ,15, 21, NW, None, None, 0, 0 ,6560
12/07/2017 13:44, 39, 48, 21 ,17, 21, NW, None, None, 0, 0 ,6560
12/07/2017 13:34, 38, 49, 21 ,16, 20, NW, None, None, 0, 0 ,6560
12/07/2017 13:34, 38, 49, 21 ,16, 20, N, None, None, 0, 0 ,6560
12/07/2017 13:24, 39, 48, 21 ,17, 21, NW, None, None, 0, 0 ,6560
12/07/2017 13:19, 39, 48, 21 ,17, 21, NW, None, None, 0, 0 ,6560
12/07/2017 13:14, 39, 48, 21 ,16, 22, NW, None, None, 0, 0 ,6560
12/07/2017 13:05, 39, 48, 21 ,17, 21, NW, None, None, 0, 0 ,6560
12/07/2017 13:04, 39, 48, 21 ,17, 21, NW, None, None, 0, 0 ,6560
12/07/2017 12:54, 38, 49, 21 ,16, 23, NW, None, None, 0, 0 ,6560
12/07/2017 12:49, 38, 48, 20 ,17, 26, NW, None, None, 0, 0 ,6560
12/07/2017 12:44, 39, 48, 21 ,19, 26, NW, None, None, 0, 0 ,6560
12/07/2017 12:34, 37, 51, 21 ,17, 22, NW, None, None, 0, 0 ,6560
12/07/2017 12:34, 37, 51, 21 ,17, 22, NW, None, None, 0, 0 ,6560
12/07/2017 12:24, 37, 51, 21 ,18, 24, N, None, None, 0, 0 ,6560
12/07/2017 12:19, 37, 51, 21 ,19, 24, N, None, None, 0, 0 ,6560
12/07/2017 12:14, 37, 51, 21 ,19, 22, N, None, None, 0, 0 ,6560
12/07/2017 12:04, 37, 52, 21 ,16, 19, NW, None, None, 0, 0 ,6560
12/07/2017 12:04, 37, 52, 21 ,15, 19, N, None, None, 0, 0 ,6560
12/07/2017 11:54, 37, 52, 21 ,14, 18, NW, None, None, 0, 0 ,6560
12/07/2017 11:49, 36, 52, 21 ,14, 18, NW, None, None, 0, 0 ,6560
12/07/2017 11:44, 36, 52, 20 ,15, 18, NW, None, None, 0, 0 ,6560
12/07/2017 11:34, 36, 52, 20 ,16, 19, NW, None, None, 0, 0 ,6560
12/07/2017 11:34, 36, 52, 20 ,16, 19, NW, None, None, 0, 0 ,6560
12/07/2017 11:23, 36, 51, 20 ,11, 16, NW, None, None, 0, 0 ,6560
12/07/2017 11:19, 36, 51, 19 ,11, 15, NW, None, None, 0, 0 ,6560
12/07/2017 11:13, 36, 48, 19 ,11, 18, NW, None, None, 0, 0 ,6560
12/07/2017 11:04, 37, 47, 19 ,11, 17, NW, None, None, 0, 0 ,6560
12/07/2017 11:03, 37, 47, 19 ,11, 17, NW, None, None, 0, 0 ,6560
12/07/2017 10:53, 37, 47, 19 ,6, 9, NW, None, None, 0, 0 ,6560
12/07/2017 10:49, 37, 48, 19 ,6, 7, W, None, None, 0, 0 ,6560
12/07/2017 10:43, 36, 48, 19 ,6, 7, W, None, None, 0, 0 ,6560
12/07/2017 10:34, 36, 48, 19 ,6, 9, NW, None, None, 0, 0 ,6560
12/07/2017 10:33, 36, 48, 19 ,5, 9, NW, None, None, 0, 0 ,6560
12/07/2017 10:23, 34, 51, 18 ,5, 10, W, None, None, 0, 0 ,6560
12/07/2017 10:19, 33, 53, 18 ,5, 10, W, None, None, 0, 0 ,6560
12/07/2017 10:13, 31, 55, 17 ,7, 9, NW, None, None, 0, 0 ,6560
12/07/2017 10:04, 29, 56, 16 ,6, 7, W, None, None, 0, 0 ,6560
12/07/2017 10:03, 29, 57, 16 ,6, 7, W, None, None, 0, 0 ,6560
12/07/2017 09:53, 29, 57, 16 ,7, 12, NW, None, None, 0, 0 ,6560
12/07/2017 09:49, 29, 57, 16 ,7, 13, NW, None, None, 0, 0 ,6560
12/07/2017 09:43, 29, 57, 16 ,10, 13, NW, None, None, 0, 0 ,6560
12/07/2017 09:34, 29, 57, 16 ,12, 14, NW, None, None, 0, 0 ,6560
12/07/2017 09:33, 29, 57, 16 ,11, 14, NW, None, None, 0, 0 ,6560
12/07/2017 09:23, 30, 56, 16 ,10, 16, NW, None, None, 0, 0 ,6560
12/07/2017 09:19, 30, 56, 16 ,12, 16, NW, None, None, 0, 0 ,6560
12/07/2017 09:13, 30, 56, 16 ,13, 16, NW, None, None, 0, 0 ,6560
12/07/2017 09:04, 30, 56, 16 ,13, 16, NW, None, None, 0, 0 ,6560
12/07/2017 09:03, 29, 57, 16 ,12, 16, NW, None, None, 0, 0 ,6560
12/07/2017 08:53, 28, 58, 16 ,12, 15, NW, None, None, 0, 0 ,6560
12/07/2017 08:49, 28, 58, 15 ,11, 14, NW, None, None, 0, 0 ,6560
12/07/2017 08:43, 28, 57, 15 ,11, 21, NW, None, None, 0, 0 ,6560
12/07/2017 08:34, 29, 56, 16 ,17, 23, N, None, None, 0, 0 ,6560
12/07/2017 08:33, 29, 56, 16 ,19, 23, N, None, None, 0, 0 ,6560
12/07/2017 08:22, 29, 56, 16 ,19, 24, N, None, None, 0, 0 ,6560
12/07/2017 08:19, 29, 56, 16 ,17, 27, NW, None, None, 0, 0 ,6560
12/07/2017 08:12, 31, 55, 17 ,21, 28, N, None, None, 0, 0 ,6560
12/07/2017 08:04, 31, 55, 17 ,22, 27, N, None, None, 0, 0 ,6560
12/07/2017 08:02, 31, 55, 17 ,23, 27, N, None, None, 0, 0 ,6560
12/07/2017 07:52, 30, 56, 17 ,22, 27, N, None, None, 0, 0 ,6560
12/07/2017 07:49, 30, 56, 17 ,21, 26, N, None, None, 0, 0 ,6560
12/07/2017 07:42, 30, 56, 17 ,22, 26, N, None, None, 0, 0 ,6560
12/07/2017 07:34, 31, 55, 17 ,22, 27, N, None, None, 0, 0 ,6560
12/07/2017 07:32, 31, 55, 17 ,23, 27, N, None, None, 0, 0 ,6560
12/07/2017 07:22, 30, 57, 17 ,24, 27, N, None, None, 0, 0 ,6560
12/07/2017 07:19, 30, 57, 17 ,23, 27, N, None, None, 0, 0 ,6560
12/07/2017 07:12, 30, 57, 17 ,23, 29, N, None, None, 0, 0 ,6560
12/07/2017 07:04, 31, 56, 17 ,25, 31, N, None, None, 0, 0 ,6560
12/07/2017 07:02, 31, 56, 17 ,26, 32, N, None, None, 0, 0 ,6560
12/07/2017 06:52, 33, 53, 18 ,29, 32, N, None, None, 0, 0 ,6560
12/07/2017 06:49, 33, 53, 18 ,29, 32, N, None, None, 0, 0 ,6560
12/07/2017 06:42, 32, 54, 18 ,27, 32, N, None, None, 0, 0 ,6560
12/07/2017 06:34, 31, 56, 18 ,25, 30, N, None, None, 0, 0 ,6560
12/07/2017 06:32, 31, 57, 18 ,24, 29, N, None, None, 0, 0 ,6560
12/07/2017 06:22, 28, 59, 16 ,18, 24, NW, None, None, 0, 0 ,6560
12/07/2017 06:19, 28, 58, 16 ,15, 24, NW, None, None, 0, 0 ,6560
12/07/2017 06:12, 29, 58, 16 ,18, 23, NW, None, None, 0, 0 ,6560
12/07/2017 06:04, 28, 58, 16 ,20, 23, NW, None, None, 0, 0 ,6560
12/07/2017 06:02, 28, 58, 15 ,18, 21, NW, None, None, 0, 0 ,6560
12/07/2017 05:52, 29, 57, 16 ,17, 22, NW, None, None, 0, 0 ,6560
12/07/2017 05:49, 29, 57, 16 ,16, 22, NW, None, None, 0, 0 ,6560
12/07/2017 05:41, 29, 58, 16 ,15, 21, NW, None, None, 0, 0 ,6560
12/07/2017 05:34, 28, 60, 17 ,16, 20, N, None, None, 0, 0 ,6560
12/07/2017 05:31, 28, 61, 16 ,16, 19, NW, None, None, 0, 0 ,6560
12/07/2017 05:21, 27, 61, 16 ,15, 19, NW, None, None, 0, 0 ,6560
12/07/2017 05:19, 28, 61, 16 ,14, 17, NW, None, None, 0, 0 ,6560
12/07/2017 05:11, 28, 60, 16 ,15, 21, N, None, None, 0, 0 ,6560
12/07/2017 05:04, 28, 60, 16 ,17, 21, N, None, None, 0, 0 ,6560
12/07/2017 05:01, 28, 61, 16 ,17, 21, NW, None, None, 0, 0 ,6560
12/07/2017 04:51, 29, 58, 16 ,16, 25, NW, None, None, 0, 0 ,6560
12/07/2017 04:49, 29, 58, 16 ,19, 25, NW, None, None, 0, 0 ,6560
12/07/2017 04:41, 29, 58, 17 ,20, 26, NW, None, None, 0, 0 ,6560
12/07/2017 04:34, 30, 58, 17 ,22, 27, N, None, None, 0, 0 ,6560
12/07/2017 04:31, 29, 58, 17 ,21, 29, N, None, None, 0, 0 ,6560
12/07/2017 04:21, 30, 58, 17 ,25, 30, N, None, None, 0, 0 ,6560
12/07/2017 04:19, 29, 58, 17 ,25, 30, N, None, None, 0, 0 ,6560
12/07/2017 04:11, 30, 59, 18 ,27, 30, N, None, None, 0, 0 ,6560
12/07/2017 04:04, 30, 58, 17 ,25, 30, N, None, None, 0, 0 ,6560
12/07/2017 04:01, 30, 57, 17 ,27, 31, N, None, None, 0, 0 ,6560
12/07/2017 03:51, 31, 55, 17 ,26, 32, N, None, None, 0, 0 ,6560
12/07/2017 03:49, 31, 55, 17 ,26, 32, N, None, None, 0, 0 ,6560
12/07/2017 03:41, 31, 54, 17 ,27, 34, N, None, None, 0, 0 ,6560
12/07/2017 03:34, 32, 53, 17 ,28, 34, N, None, None, 0, 0 ,6560
12/07/2017 03:31, 32, 53, 17 ,27, 32, N, None, None, 0, 0 ,6560
12/07/2017 03:21, 33, 50, 17 ,27, 33, N, None, None, 0, 0 ,6560
12/07/2017 03:19, 33, 50, 17 ,27, 33, N, None, None, 0, 0 ,6560
12/07/2017 03:11, 33, 51, 17 ,25, 31, N, None, None, 0, 0 ,6560
12/07/2017 03:04, 32, 52, 17 ,23, 28, N, None, None, 0, 0 ,6560
12/07/2017 03:01, 32, 53, 17 ,22, 27, N, None, None, 0, 0 ,6560
12/07/2017 02:51, 31, 55, 17 ,21, 22, N, None, None, 0, 0 ,6560
12/07/2017 02:49, 31, 55, 17 ,19, 22, N, None, None, 0, 0 ,6560
12/07/2017 02:40, 30, 56, 17 ,17, 19, N, None, None, 0, 0 ,6560
12/07/2017 02:34, 28, 59, 15 ,12, 15, NW, None, None, 0, 0 ,6560
12/07/2017 02:30, 27, 60, 15 ,12, 14, NW, None, None, 0, 0 ,6560
12/07/2017 02:20, 21, 66, 12 ,9, 10, NW, None, None, 0, 0 ,6560
12/07/2017 02:19, 21, 66, 11 ,8, 9, NW, None, None, 0, 0 ,6560
12/07/2017 02:10, 21, 65, 11 ,6, 7, W, None, None, 0, 0 ,6560
12/07/2017 02:04, 21, 64, 11 ,6, 7, W, None, None, 0, 0 ,6560
12/07/2017 02:00, 22, 63, 12 ,4, 5, W, None, None, 0, 0 ,6560
12/07/2017 01:50, 24, 61, 13 ,4, 9, W, None, None, 0, 0 ,6560
12/07/2017 01:49, 24, 61, 13 ,5, 9, W, None, None, 0, 0 ,6560
12/07/2017 01:40, 24, 62, 13 ,7, 9, NW, None, None, 0, 0 ,6560
12/07/2017 01:34, 23, 62, 12 ,4, 6, NW, None, None, 0, 0 ,6560
12/07/2017 01:30, 23, 62, 12 ,4, 6, W, None, None, 0, 0 ,6560
12/07/2017 01:20, 24, 62, 13 ,2, 3, W, None, None, 0, 0 ,6560
12/07/2017 01:19, 24, 62, 13 ,2, 3, W, None, None, 0, 0 ,6560
12/07/2017 01:10, 25, 62, 14 ,0, 4, W, None, None, 0, 0 ,6560
12/07/2017 01:04, 25, 62, 14 ,2, 3, NW, None, None, 0, 0 ,6560
12/07/2017 01:00, 25, 62, 14 ,2, 3, NW, None, None, 0, 0 ,6560
12/07/2017 00:50, 25, 62, 14 ,0, 2, NW, None, None, 0, 0 ,6560
12/07/2017 00:49, 25, 61, 14 ,0, 2, NE, None, None, 0, 0 ,6560
12/07/2017 00:40, 26, 62, 15 ,0, 3, N, None, None, 0, 0 ,6560
12/07/2017 00:34, 25, 63, 14 ,1, 3, S, None, None, 0, 0 ,6560
12/07/2017 00:30, 25, 63, 14 ,0, 3, SE, None, None, 0, 0 ,6560
12/07/2017 00:20, 25, 64, 14 ,2, 6, W, None, None, 0, 0 ,6560
12/07/2017 00:19, 25, 64, 14 ,2, 6, W, None, None, 0, 0 ,6560
12/07/2017 00:10, 25, 64, 15 ,3, 6, W, None, None, 0, 0 ,6560
12/07/2017 00:04, 25, 64, 15 ,3, 6, W, None, None, 0, 0 ,6560
12/06/2017 23:59, 26, 64, 15 ,4, 6, W, None, None, 0, 0 ,6560
12/06/2017 23:49, 26, 63, 15 ,4, 6, W, None, None, 0, 0 ,6560
12/06/2017 23:49, 26, 63, 15 ,4, 6, W, None, None, 0, 0 ,6560
12/06/2017 23:39, 26, 63, 16 ,6, 7, W, None, None, 0, 0 ,6560
12/06/2017 23:34, 26, 63, 15 ,4, 6, W, None, None, 0, 0 ,6560
12/06/2017 23:29, 26, 62, 15 ,3, 6, W, None, None, 0, 0 ,6560
12/06/2017 23:19, 26, 62, 15 ,6, 6, W, None, None, 0, 0 ,6560
12/06/2017 23:19, 26, 62, 15 ,6, 6, W, None, None, 0, 0 ,6560
12/06/2017 23:09, 27, 61, 15 ,5, 8, W, None, None, 0, 0 ,6560
12/06/2017 23:04, 27, 60, 15 ,6, 8, W, None, None, 0, 0 ,6560
12/06/2017 22:59, 27, 59, 15 ,4, 7, W, None, None, 0, 0 ,6560
12/06/2017 22:49, 27, 59, 15 ,3, 6, W, None, None, 0, 0 ,6560
12/06/2017 22:49, 27, 59, 15 ,3, 6, W, None, None, 0, 0 ,6560
12/06/2017 22:39, 27, 59, 15 ,4, 6, SW, None, None, 0, 0 ,6560
12/06/2017 22:34, 27, 59, 15 ,1, 6, SW, None, None, 0, 0 ,6560
12/06/2017 22:29, 26, 60, 15 ,4, 7, SW, None, None, 0, 0 ,6560
12/06/2017 22:19, 26, 62, 15 ,5, 6, SW, None, None, 0, 0 ,6560
12/06/2017 22:19, 26, 62, 15 ,5, 6, SW, None, None, 0, 0 ,6560
12/06/2017 22:09, 26, 60, 14 ,3, 7, W, None, None, 0, 0 ,6560
12/06/2017 22:04, 26, 59, 14 ,7, 9, W, None, None, 0, 0 ,6560
12/06/2017 21:59, 26, 58, 14 ,7, 11, W, None, None, 0, 0 ,6560
12/06/2017 21:49, 26, 56, 13 ,9, 11, NW, None, None, 0, 0 ,6560
12/06/2017 21:49, 26, 56, 13 ,10, 11, NW, None, None, 0, 0 ,6560
12/06/2017 21:39, 27, 56, 13 ,9, 11, NW, None, None, 0, 0 ,6560
12/06/2017 21:34, 26, 57, 14 ,10, 11, NW, None, None, 0, 0 ,6560
12/06/2017 21:29, 26, 57, 13 ,9, 10, NW, None, None, 0, 0 ,6560
12/06/2017 21:19, 26, 58, 13 ,10, 12, NW, None, None, 0, 0 ,6560
12/06/2017 21:18, 26, 58, 13 ,10, 12, NW, None, None, 0, 0 ,6560
12/06/2017 21:08, 25, 57, 12 ,10, 11, NW, None, None, 0, 0 ,6560
12/06/2017 21:04, 25, 56, 12 ,10, 11, NW, None, None, 0, 0 ,6560
12/06/2017 20:58, 25, 56, 12 ,9, 12, NW, None, None, 0, 0 ,6560
12/06/2017 20:49, 26, 54, 12 ,9, 12, NW, None, None, 0, 0 ,6560
12/06/2017 20:48, 26, 54, 11 ,9, 12, NW, None, None, 0, 0 ,6560
12/06/2017 20:38, 26, 53, 12 ,9, 10, NW, None, None, 0, 0 ,6560
12/06/2017 20:34, 27, 53, 12 ,9, 10, NW, None, None, 0, 0 ,6560
12/06/2017 20:28, 26, 54, 12 ,9, 11, NW, None, None, 0, 0 ,6560
12/06/2017 20:19, 25, 56, 12 ,9, 12, NW, None, None, 0, 0 ,6560
12/06/2017 20:18, 25, 56, 12 ,8, 12, NW, None, None, 0, 0 ,6560
12/06/2017 20:08, 25, 56, 11 ,11, 12, NW, None, None, 0, 0 ,6560
12/06/2017 20:04, 24, 56, 11 ,10, 12, NW, None, None, 0, 0 ,6560
12/06/2017 19:58, 24, 56, 11 ,11, 12, NW, None, None, 0, 0 ,6560
12/06/2017 19:49, 24, 57, 11 ,11, 12, W, None, None, 0, 0 ,6560
12/06/2017 19:48, 24, 57, 11 ,11, 12, NW, None, None, 0, 0 ,6560
12/06/2017 19:38, 24, 57, 11 ,11, 12, NW, None, None, 0, 0 ,6560
12/06/2017 19:34, 24, 57, 11 ,11, 12, NW, None, None, 0, 0 ,6560
12/06/2017 19:28, 23, 58, 11 ,11, 13, NW, None, None, 0, 0 ,6560
12/06/2017 19:19, 23, 59, 11 ,11, 14, NW, None, None, 0, 0 ,6560
12/06/2017 19:18, 22, 60, 11 ,12, 14, NW, None, None, 0, 0 ,6560
12/06/2017 19:08, 22, 60, 11 ,12, 17, NW, None, None, 0, 0 ,6560
12/06/2017 19:04, 22, 60, 11 ,13, 14, NW, None, None, 0, 0 ,6560
12/06/2017 18:58, 24, 59, 12 ,11, 13, NW, None, None, 0, 0 ,6560
12/06/2017 18:49, 24, 60, 12 ,11, 14, NW, None, None, 0, 0 ,6560
12/06/2017 18:48, 24, 60, 12 ,12, 14, NW, None, None, 0, 0 ,6560
Change End Date:

Copyright © 1998-2015 Vaisala, Inc.
All Rights Reserved
Send comments about the data to:
SCAN Web ® is a registered trademark of Vaisala, Inc.
SCAN Web Version 6.0